GB-0193 weather

Bourne Park Airfield
England, United Kingdom

Public forecast

Using degrees Celsius for public forecast. Weather courtesy of forecast.io.

Closest aviation weather report (METAR) to Bourne Park Airfield

Closest report is Middle Wallop Airfield, 8.4 nm (15.6 km) SSW. Retrieved 2020/02/21 05:50 UTC (24 minutes ago):

EGVP 210550Z 22008KT 9999 FEW045 BKN240 04/02 Q1024 RMK BLU

Closest aviation forecast (TAF) to Bourne Park Airfield

Forecast is more than 12 hours old.

Closest forecast is Middle Wallop Airfield, 8.4 nm (15.6 km) SSW. Retrieved 2019/01/07 18:33 UTC (1 year ago):

TAF EGVP 071727Z 0718/0821 CNL